createdAt,value
2023-04-17T00:02:22.501Z,100.00
2023-04-17T00:07:28.402Z,100.00
2023-04-17T00:12:32.520Z,100.00
2023-04-17T00:17:35.467Z,100.00
2023-04-17T00:22:38.317Z,100.00
2023-04-17T00:27:42.895Z,100.00
2023-04-17T00:32:45.964Z,100.00
2023-04-17T00:37:49.302Z,100.00
2023-04-17T00:42:56.249Z,100.00
2023-04-17T00:48:02.268Z,100.00
2023-04-17T00:53:05.123Z,100.00
2023-04-17T00:58:10.097Z,100.00
2023-04-17T01:03:13.304Z,100.00
2023-04-17T01:08:16.612Z,100.00
2023-04-17T01:13:20.858Z,100.00
2023-04-17T01:18:23.752Z,100.00
2023-04-17T01:23:28.485Z,100.00
2023-04-17T01:28:32.579Z,100.00
2023-04-17T01:33:35.385Z,100.00
2023-04-17T01:38:38.585Z,100.00
2023-04-17T01:43:44.084Z,100.00
2023-04-17T01:48:47.650Z,100.00
2023-04-17T01:53:50.456Z,100.00
2023-04-17T01:58:54.631Z,100.00
2023-04-17T02:03:57.627Z,100.00
2023-04-17T02:09:00.650Z,100.00
2023-04-17T02:14:04.769Z,100.00
2023-04-17T02:19:07.553Z,100.00
2023-04-17T02:24:10.393Z,100.00
2023-04-17T02:29:14.670Z,100.00
2023-04-17T02:34:18.069Z,100.00
2023-04-17T02:39:21.478Z,100.00
2023-04-17T02:44:25.626Z,100.00
2023-04-17T02:49:28.493Z,100.00
2023-04-17T02:54:32.432Z,100.00
2023-04-17T02:59:36.975Z,100.00
2023-04-17T03:04:39.785Z,100.00
2023-04-17T03:09:42.723Z,100.00
2023-04-17T03:14:47.474Z,100.00
2023-04-17T03:19:50.257Z,100.00
2023-04-17T03:24:53.245Z,100.00
2023-04-17T03:29:59.182Z,100.00
2023-04-17T03:35:03.151Z,100.00
2023-04-17T03:40:08.824Z,100.00
2023-04-17T03:45:13.274Z,100.00
2023-04-17T03:50:16.468Z,100.00
2023-04-17T03:55:26.153Z,100.00
2023-04-17T04:00:32.602Z,100.00
2023-04-17T04:05:41.757Z,100.00
2023-04-17T04:10:47.091Z,100.00
2023-04-17T04:15:57.383Z,100.00
2023-04-17T04:21:03.458Z,100.00
2023-04-17T04:26:09.620Z,100.00
2023-04-17T04:31:18.715Z,100.00
2023-04-17T04:36:23.071Z,100.00
2023-04-17T04:41:34.928Z,100.00
2023-04-17T04:46:42.441Z,100.00
2023-04-17T04:51:45.418Z,100.00
2023-04-17T04:56:49.069Z,100.00
2023-04-17T05:01:53.864Z,100.00
2023-04-17T05:06:59.562Z,100.00
2023-04-17T05:12:05.633Z,100.00
2023-04-17T05:17:10.731Z,100.00
2023-04-17T05:22:14.666Z,100.00
2023-04-17T05:27:35.426Z,100.00
2023-04-17T05:32:40.795Z,100.00
2023-04-17T05:38:05.724Z,100.00
2023-04-17T05:43:10.469Z,100.00
2023-04-17T05:48:15.835Z,100.00
2023-04-17T05:53:19.684Z,100.00
2023-04-17T05:58:26.732Z,100.00
2023-04-17T06:03:34.005Z,100.00
2023-04-17T06:08:44.600Z,100.00
2023-04-17T06:13:47.522Z,100.00
2023-04-17T06:18:53.703Z,100.00
2023-04-17T06:23:56.607Z,100.00
2023-04-17T06:29:00.829Z,100.00
2023-04-17T06:34:09.255Z,100.00
2023-04-17T06:39:17.125Z,100.00
2023-04-17T06:44:22.372Z,100.00
2023-04-17T06:49:27.588Z,100.00
2023-04-17T06:54:30.394Z,100.00
2023-04-17T06:59:35.729Z,100.00
2023-04-17T07:04:40.442Z,100.00
2023-04-17T07:09:45.293Z,100.00
2023-04-17T07:14:48.143Z,100.00
2023-04-17T07:19:52.444Z,100.00
2023-04-17T07:24:55.345Z,100.00
2023-04-17T07:29:58.135Z,100.00
2023-04-17T07:35:02.999Z,100.00
2023-04-17T07:40:10.348Z,100.00
2023-04-17T07:45:13.525Z,100.00
2023-04-17T07:50:19.720Z,100.00
2023-04-17T07:55:22.752Z,100.00
2023-04-17T08:00:25.615Z,100.00
2023-04-17T08:05:30.133Z,100.00
2023-04-17T08:10:32.960Z,100.00
2023-04-17T08:15:40.688Z,100.00
2023-04-17T08:20:44.884Z,100.00
2023-04-17T08:25:49.921Z,100.00
2023-04-17T08:30:53.889Z,100.00
2023-04-17T08:35:59.083Z,100.00
2023-04-17T08:41:07.981Z,100.00
2023-04-17T08:46:11.398Z,100.00
2023-04-17T08:51:16.216Z,100.00
2023-04-17T08:56:18.957Z,100.00
2023-04-17T09:01:21.860Z,100.00
2023-04-17T09:06:29.200Z,98.81
2023-04-17T09:11:31.965Z,92.92
2023-04-17T09:16:36.215Z,88.67
2023-04-17T09:21:40.544Z,87.17
2023-04-17T09:26:43.360Z,90.11
2023-04-17T09:31:47.591Z,86.95
2023-04-17T09:36:55.909Z,91.89
2023-04-17T09:42:03.789Z,93.31
2023-04-17T09:47:08.773Z,85.10
2023-04-17T09:52:14.263Z,81.23
2023-04-17T09:57:19.110Z,82.33
2023-04-17T10:02:22.645Z,80.63
2023-04-17T10:07:27.918Z,73.97
2023-04-17T10:12:33.324Z,70.81
2023-04-17T10:17:38.190Z,71.63
2023-04-17T10:22:43.913Z,74.74
2023-04-17T10:27:49.953Z,75.46
2023-04-17T10:33:22.872Z,73.64
2023-04-17T10:38:37.448Z,74.97
2023-04-17T10:43:45.903Z,70.85
2023-04-17T10:48:52.057Z,65.13
2023-04-17T10:53:58.890Z,67.81
2023-04-17T10:59:03.283Z,66.73
2023-04-17T11:04:06.866Z,68.62
2023-04-17T11:09:12.127Z,71.36
2023-04-17T11:14:19.379Z,68.04
2023-04-17T11:19:23.537Z,67.36
2023-04-17T11:24:30.079Z,57.43
2023-04-17T11:29:33.679Z,56.70
2023-04-17T11:34:38.669Z,57.19
2023-04-17T11:39:45.014Z,56.60
2023-04-17T11:44:48.632Z,55.15
2023-04-17T11:49:52.599Z,53.59
2023-04-17T11:55:00.021Z,55.37
2023-04-17T12:00:14.436Z,53.66
2023-04-17T12:05:18.557Z,52.44
2023-04-17T12:10:24.815Z,51.39
2023-04-17T12:15:27.636Z,49.71
2023-04-17T12:20:32.266Z,49.73
2023-04-17T12:25:37.017Z,48.97
2023-04-17T12:30:39.874Z,50.41
2023-04-17T12:35:43.610Z,50.08
2023-04-17T12:40:47.723Z,52.50
2023-04-17T12:45:50.850Z,49.72
2023-04-17T12:50:54.463Z,48.70
2023-04-17T12:55:58.604Z,48.67
2023-04-17T13:01:03.531Z,45.53
2023-04-17T13:06:06.558Z,46.54
2023-04-17T13:11:13.056Z,48.15
2023-04-17T13:16:16.137Z,46.41
2023-04-17T13:21:19.138Z,44.56
2023-04-17T13:26:26.683Z,40.85
2023-04-17T13:31:31.728Z,38.32
2023-04-17T13:36:35.126Z,39.22
2023-04-17T13:41:39.399Z,42.19
2023-04-17T13:46:44.263Z,44.33
2023-04-17T13:51:47.189Z,44.89
2023-04-17T13:56:51.509Z,47.02
2023-04-17T14:01:55.220Z,48.12
2023-04-17T14:07:00.893Z,45.74
2023-04-17T14:12:08.105Z,44.18
2023-04-17T14:17:11.206Z,44.59
2023-04-17T14:22:15.360Z,44.80
2023-04-17T14:27:20.147Z,46.46
2023-04-17T14:32:23.873Z,46.25
2023-04-17T14:37:28.343Z,46.06
2023-04-17T14:42:38.253Z,44.12
2023-04-17T14:47:56.401Z,42.03
2023-04-17T14:53:02.986Z,40.55
2023-04-17T14:58:07.261Z,43.20
2023-04-17T15:03:10.145Z,45.68
2023-04-17T15:08:13.339Z,45.51
2023-04-17T15:13:17.433Z,46.98
2023-04-17T15:18:20.845Z,48.90
2023-04-17T15:23:25.413Z,49.40
2023-04-17T15:28:29.631Z,50.22
2023-04-17T15:33:32.448Z,49.89
2023-04-17T15:38:38.304Z,49.36
2023-04-17T15:43:42.576Z,49.39
2023-04-17T15:48:54.975Z,49.63
2023-04-17T15:54:08.276Z,49.24
2023-04-17T15:59:13.131Z,49.49
2023-04-17T16:04:19.378Z,50.17
2023-04-17T16:09:24.523Z,50.82
2023-04-17T16:14:29.414Z,51.14
2023-04-17T16:19:33.028Z,51.86
2023-04-17T16:24:35.955Z,52.68
2023-04-17T16:29:40.311Z,52.73
2023-04-17T16:34:43.974Z,53.04
2023-04-17T16:39:52.396Z,52.80
2023-04-17T16:45:00.181Z,53.61
2023-04-17T16:50:04.804Z,53.54
2023-04-17T16:55:10.132Z,54.71
2023-04-17T17:00:15.377Z,54.65
2023-04-17T17:05:18.143Z,53.58
2023-04-17T17:10:21.094Z,48.00
2023-04-17T17:15:25.680Z,41.54
2023-04-17T17:20:30.035Z,46.09
2023-04-17T17:25:33.312Z,47.60
2023-04-17T17:30:37.644Z,48.33
2023-04-17T17:35:40.500Z,49.10
2023-04-17T17:40:46.176Z,50.19
2023-04-17T17:45:51.980Z,50.22
2023-04-17T17:50:55.004Z,51.01
2023-04-17T17:55:58.311Z,50.80
2023-04-17T18:01:03.325Z,50.87
2023-04-17T18:06:06.331Z,52.65
2023-04-17T18:11:09.026Z,52.28
2023-04-17T18:16:13.185Z,53.14
2023-04-17T18:21:15.962Z,53.63
2023-04-17T18:26:19.415Z,54.24
2023-04-17T18:31:25.137Z,55.12
2023-04-17T18:36:28.929Z,55.56
2023-04-17T18:41:32.342Z,55.68
2023-04-17T18:46:37.614Z,55.48
2023-04-17T18:51:45.366Z,56.12
2023-04-17T18:56:48.250Z,56.22
2023-04-17T19:01:52.445Z,57.13
2023-04-17T19:06:55.293Z,57.93
2023-04-17T19:11:58.561Z,56.93
2023-04-17T19:17:03.349Z,57.33
2023-04-17T19:22:06.458Z,56.76
2023-04-17T19:27:09.188Z,58.07
2023-04-17T19:32:16.328Z,57.16
2023-04-17T19:37:20.090Z,57.83
2023-04-17T19:42:24.880Z,58.10
2023-04-17T19:47:31.047Z,58.42
2023-04-17T19:52:33.955Z,58.53
2023-04-17T19:57:37.164Z,60.21
2023-04-17T20:02:41.685Z,62.74
2023-04-17T20:07:44.495Z,61.49
2023-04-17T20:12:47.421Z,61.46
2023-04-17T20:17:52.116Z,64.30
2023-04-17T20:22:54.897Z,67.06
2023-04-17T20:27:58.201Z,67.81
2023-04-17T20:33:02.421Z,68.57
2023-04-17T20:38:06.235Z,72.05
2023-04-17T20:43:09.493Z,75.69
2023-04-17T20:48:13.686Z,79.35
2023-04-17T20:53:16.894Z,80.87
2023-04-17T20:58:20.095Z,81.93
2023-04-17T21:03:24.731Z,82.54
2023-04-17T21:08:27.861Z,83.47
2023-04-17T21:13:30.896Z,82.65
2023-04-17T21:18:35.372Z,87.59
2023-04-17T21:23:40.250Z,88.84
2023-04-17T21:28:43.654Z,89.50
2023-04-17T21:33:47.745Z,92.11
2023-04-17T21:38:50.477Z,93.51
2023-04-17T21:43:53.604Z,94.45
2023-04-17T21:48:57.954Z,96.45
2023-04-17T21:54:00.692Z,97.54
2023-04-17T21:59:03.553Z,97.81
2023-04-17T22:04:07.667Z,98.62
2023-04-17T22:09:10.500Z,100.00
2023-04-17T22:14:13.640Z,100.00
2023-04-17T22:19:17.804Z,100.00
2023-04-17T22:24:20.662Z,100.00
2023-04-17T22:29:23.428Z,100.00
2023-04-17T22:34:27.480Z,100.00
2023-04-17T22:39:30.488Z,100.00
2023-04-17T22:44:34.249Z,100.00
2023-04-17T22:49:38.743Z,100.00
2023-04-17T22:54:41.468Z,100.00
2023-04-17T22:59:44.232Z,100.00
2023-04-17T23:04:48.271Z,100.00
2023-04-17T23:09:51.025Z,100.00
2023-04-17T23:14:53.860Z,100.00
2023-04-17T23:19:57.908Z,100.00
2023-04-17T23:25:00.650Z,100.00
2023-04-17T23:30:03.664Z,100.00
2023-04-17T23:35:10.236Z,100.00
2023-04-17T23:40:13.664Z,100.00
2023-04-17T23:45:16.415Z,100.00
2023-04-17T23:50:20.704Z,100.00
2023-04-17T23:55:26.284Z,100.00
